Meteorología y climatología de Navarra
Datos de la estación - Meteo Navarra

Estación de Bera (Larrategaña) GN

Altitud 306 m.


Datos desde el 30/06/2020 hasta el 01/07/2020 en horario solar
Los datos son PROVISIONALES

Anterior Página 1 de 1 Siguiente Descargar: Formato para Excel 2000 o superior   Formato csv   Formato para OpenOffice Calc
Fecha Temperatura Humedad relativa Radiación global Insolación Precipitación Vel. viento 10 m Vel. viento 10 m Dir. viento 10 m
ºC % W/m² s l/m² m/s km/h º
30/06/2020 0:00 14.5 97 0.0 0 0.0 0.8 3.0 224
30/06/2020 0:10 14.5 97 0.0 0 0.0 0.7 2.7 233
30/06/2020 0:20 14.4 97 0.0 0 0.0 1.0 3.5 208
30/06/2020 0:30 14.3 97 0.0 0 0.0 1.0 3.6 229
30/06/2020 0:40 14.0 98 0.0 0 0.0 0.9 3.2 242
30/06/2020 0:50 14.0 98 0.0 0 0.0 1.0 3.7 234
30/06/2020 1:00 14.1 97 0.0 0 0.0 1.2 4.4 233
30/06/2020 1:10 14.0 97 0.0 0 0.0 1.4 5.1 230
30/06/2020 1:20 13.8 98 0.0 0 0.0 1.2 4.4 231
30/06/2020 1:30 13.8 98 0.0 0 0.0 1.0 3.7 238
30/06/2020 1:40 13.8 99 0.0 0 0.0 0.9 3.3 234
30/06/2020 1:50 13.8 98 0.0 0 0.0 1.0 3.6 233
30/06/2020 2:00 13.7 98 0.0 0 0.0 1.0 3.5 228
30/06/2020 2:10 13.6 98 0.0 0 0.0 1.2 4.5 236
30/06/2020 2:20 13.5 98 0.0 0 0.0 1.2 4.2 233
30/06/2020 2:30 13.5 98 0.0 0 0.0 1.1 3.9 234
30/06/2020 2:40 13.5 99 0.0 0 0.0 0.9 3.3 243
30/06/2020 2:50 13.3 99 0.0 0 0.0 0.9 3.1 241
30/06/2020 3:00 13.3 99 0.0 0 0.0 1.1 3.9 239
30/06/2020 3:10 13.4 99 0.0 0 0.0 0.8 2.9 239
30/06/2020 3:20 13.1 99 0.0 0 0.0 1.1 3.9 234
30/06/2020 3:30 12.7 99 0.0 0 0.0 1.2 4.1 238
30/06/2020 3:40 12.9 99 0.0 0 0.0 0.9 3.4 235
30/06/2020 3:50 12.9 99 0.0 0 0.0 0.8 2.7 234
30/06/2020 4:00 13.0 99 0.0 0 0.0 1.1 4.0 226
30/06/2020 4:10 12.5 99 0.0 0 0.0 1.4 5.1 240
30/06/2020 4:20 12.0 99 0.0 0 0.0 1.7 5.9 232
30/06/2020 4:30 11.7 99 0.0 0 0.0 1.0 3.5 240
30/06/2020 4:40 11.9 100 0.0 0 0.0 0.7 2.3 221
30/06/2020 4:50 11.7 100 11.0 0 0.0 1.4 4.9 216
30/06/2020 5:00 11.6 100 35.1 502 0.0 1.4 5.1 236
30/06/2020 5:10 11.7 100 47.0 596 0.0 1.7 6.0 238
30/06/2020 5:20 11.8 100 65.1 534 0.0 1.8 6.6 240
30/06/2020 5:30 12.0 100 108.9 600 0.0 1.5 5.4 238
30/06/2020 5:40 12.1 100 158.4 600 0.0 1.3 4.8 235
30/06/2020 5:50 12.1 100 199.2 600 0.0 1.0 3.6 236
30/06/2020 6:00 12.4 100 194.5 600 0.0 0.8 2.9 234
30/06/2020 6:10 12.8 100 184.6 600 0.0 1.1 3.9 231
30/06/2020 6:20 12.9 100 190.8 600 0.0 1.3 4.8 232
30/06/2020 6:30 13.0 100 217.8 600 0.0 1.6 5.8 229
30/06/2020 6:40 13.2 100 255.6 600 0.0 1.2 4.2 240
30/06/2020 6:50 13.5 100 307.6 600 0.0 0.8 2.7 240
30/06/2020 7:00 13.8 100 351.8 600 0.0 0.9 3.2 249
30/06/2020 7:10 14.3 100 404.9 600 0.0 0.8 3.0 245
30/06/2020 7:20 14.8 99 439.4 600 0.0 0.7 2.4 226
30/06/2020 7:30 14.9 98 470.8 600 0.0 0.7 2.4 215
30/06/2020 7:40 15.2 97 498.9 600 0.0 1.1 3.8 224
30/06/2020 7:50 16.0 93 519.5 600 0.0 0.7 2.4 220
30/06/2020 8:00 16.6 88 535.5 600 0.0 0.9 3.3 219
30/06/2020 8:10 17.1 85 563.6 600 0.0 0.6 2.2 236
30/06/2020 8:20 18.2 83 606.1 600 0.0 0.6 2.1 59
30/06/2020 8:30 18.5 82 637.3 600 0.0 1.5 5.2 61
30/06/2020 8:40 18.6 80 664.5 600 0.0 1.4 5.1 56
30/06/2020 8:50 18.8 76 690.0 600 0.0 1.8 6.3 53
30/06/2020 9:00 19.1 75 714.6 600 0.0 1.9 6.8 51
30/06/2020 9:10 19.2 75 740.7 600 0.0 1.6 5.6 28
30/06/2020 9:20 19.4 76 765.5 600 0.0 2.1 7.6 53
30/06/2020 9:30 19.9 75 788.0 600 0.0 1.6 5.8 9
30/06/2020 9:40 20.1 75 810.0 600 0.0 2.3 8.2 41
30/06/2020 9:50 20.2 75 832.0 600 0.0 2.3 8.4 49
30/06/2020 10:00 20.6 74 850.0 600 0.0 1.8 6.6 29
30/06/2020 10:10 20.7 71 866.0 600 0.0 2.0 7.3 42
30/06/2020 10:20 20.9 72 877.0 600 0.0 1.9 6.9 32
30/06/2020 10:30 21.3 72 892.0 600 0.0 2.8 9.9 39
30/06/2020 10:40 21.4 71 907.0 600 0.0 3.1 11.0 38
30/06/2020 10:50 21.6 72 921.0 600 0.0 3.2 11.4 40
30/06/2020 11:00 22.0 71 934.0 600 0.0 3.0 10.6 38
30/06/2020 11:10 22.3 67 947.0 600 0.0 3.0 10.9 39
30/06/2020 11:20 22.1 70 959.0 600 0.0 3.3 11.7 44
30/06/2020 11:30 22.6 70 974.0 600 0.0 3.1 11.0 49
30/06/2020 11:40 22.9 70 986.0 600 0.0 3.2 11.4 44
30/06/2020 11:50 22.9 69 989.0 600 0.0 2.9 10.4 43
30/06/2020 12:00 22.9 69 993.0 600 0.0 3.1 11.1 47
30/06/2020 12:10 23.1 67 994.0 600 0.0 2.9 10.4 39
30/06/2020 12:20 23.3 67 995.0 600 0.0 3.2 11.4 55
30/06/2020 12:30 23.3 67 994.0 600 0.0 3.6 12.9 42
30/06/2020 12:40 23.5 68 990.0 600 0.0 3.6 12.9 60
30/06/2020 12:50 23.5 67 984.0 600 0.0 3.9 13.9 59
30/06/2020 13:00 23.6 66 977.0 600 0.0 3.3 11.7 52
30/06/2020 13:10 23.9 66 962.0 600 0.0 4.0 14.5 60
30/06/2020 13:20 23.8 66 951.0 600 0.0 4.3 15.5 62
30/06/2020 13:30 23.8 65 938.0 600 0.0 4.0 14.3 56
30/06/2020 13:40 23.8 63 924.0 600 0.0 4.1 14.8 62
30/06/2020 13:50 24.0 64 910.0 600 0.0 3.7 13.3 62
30/06/2020 14:00 24.2 63 893.0 600 0.0 4.0 14.5 65
30/06/2020 14:10 23.9 62 878.0 600 0.0 4.6 16.4 57
30/06/2020 14:20 23.9 63 861.0 600 0.0 4.1 14.8 58
30/06/2020 14:30 24.0 62 841.0 600 0.0 4.1 14.8 48
30/06/2020 14:40 24.1 61 820.0 600 0.0 4.2 15.2 57
30/06/2020 14:50 24.0 61 797.3 600 0.0 3.9 13.9 47
30/06/2020 15:00 24.0 61 773.7 600 0.0 4.0 14.5 43
30/06/2020 15:10 24.2 62 749.7 600 0.0 3.8 13.8 37
30/06/2020 15:20 24.1 62 727.2 600 0.0 4.2 15.2 58
30/06/2020 15:30 24.3 61 702.1 600 0.0 3.9 14.1 55
30/06/2020 15:40 24.2 62 675.1 600 0.0 4.1 14.8 42
30/06/2020 15:50 24.1 62 647.8 600 0.0 4.1 14.7 46
30/06/2020 16:00 24.1 62 619.8 600 0.0 3.2 11.3 50
30/06/2020 16:10 24.1 61 591.8 600 0.0 4.3 15.5 38
30/06/2020 16:20 24.0 67 560.9 600 0.0 2.8 9.9 345
30/06/2020 16:30 23.2 72 528.1 600 0.0 2.9 10.5 319
30/06/2020 16:40 23.2 73 493.7 600 0.0 2.9 10.3 315
30/06/2020 16:50 23.3 73 467.7 600 0.0 2.8 9.9 336
30/06/2020 17:00 23.3 72 434.2 600 0.0 1.7 6.1 316
30/06/2020 17:10 23.4 71 401.6 600 0.0 1.6 5.7 343
30/06/2020 17:20 23.0 72 374.7 600 0.0 2.9 10.3 306
30/06/2020 17:30 22.9 74 344.7 600 0.0 2.1 7.5 296
30/06/2020 17:40 22.7 74 311.0 600 0.0 2.3 8.2 310
30/06/2020 17:50 22.3 76 282.4 600 0.0 2.5 9.1 308
30/06/2020 18:00 22.0 77 255.5 600 0.0 2.0 7.0 303
30/06/2020 18:10 22.4 74 235.0 600 0.0 1.8 6.4 347
30/06/2020 18:20 22.1 76 211.6 600 0.0 1.9 7.0 317
30/06/2020 18:30 22.1 76 194.4 600 0.0 1.3 4.8 349
30/06/2020 18:40 22.1 75 167.0 600 0.0 1.4 5.2 349
30/06/2020 18:50 21.9 77 132.6 600 0.0 1.1 4.1 327
30/06/2020 19:00 21.4 79 109.3 520 0.0 2.6 9.4 331
30/06/2020 19:10 20.6 82 64.5 408 0.0 2.8 10.1 320
30/06/2020 19:20 20.1 84 52.0 522 0.0 2.8 10.0 315
30/06/2020 19:30 19.6 86 28.8 0 0.0 2.7 9.6 315
30/06/2020 19:40 19.3 87 17.9 0 0.0 1.9 6.9 321
30/06/2020 19:50 18.9 88 0.0 0 0.0 0.9 3.1 142
30/06/2020 20:00 19.0 88 0.0 0 0.0 0.9 3.1 39
30/06/2020 20:10 18.7 89 0.0 0 0.0 2.1 7.6 13
30/06/2020 20:20 18.5 90 0.0 0 0.0 1.5 5.4 7
30/06/2020 20:30 18.8 89 0.0 0 0.0 2.5 9.1 353
30/06/2020 20:40 18.6 90 0.0 0 0.0 2.1 7.7 321
30/06/2020 20:50 18.3 91 0.0 0 0.0 1.2 4.4 204
30/06/2020 21:00 18.1 92 0.0 0 0.0 1.2 4.3 242
30/06/2020 21:10 17.9 92 0.0 0 0.0 3.4 12.3 294
30/06/2020 21:20 17.8 92 0.0 0 0.0 2.7 9.8 309
30/06/2020 21:30 17.7 93 0.0 0 0.0 3.0 10.8 297
30/06/2020 21:40 17.6 93 0.0 0 0.0 2.6 9.4 281
30/06/2020 21:50 17.6 93 0.0 0 0.0 2.1 7.6 308
30/06/2020 22:00 17.6 93 0.0 0 0.0 0.7 2.4 268
30/06/2020 22:10 17.4 94 0.0 0 0.0 0.5 1.8 110
30/06/2020 22:20 17.4 94 0.0 0 0.0 0.3 0.9 232
30/06/2020 22:30 17.6 94 0.0 0 0.0 0.9 3.1 31
30/06/2020 22:40 17.6 95 0.0 0 0.0 1.0 3.5 5
30/06/2020 22:50 17.6 95 0.0 0 0.0 0.9 3.3 352
30/06/2020 23:00 17.6 95 0.0 0 0.0 1.1 3.8 325
30/06/2020 23:10 17.4 95 0.0 0 0.0 0.7 2.5 345
30/06/2020 23:20 17.5 95 0.0 0 0.0 1.3 4.7 333
30/06/2020 23:30 17.5 95 0.0 0 0.0 1.4 5.1 280
30/06/2020 23:40 17.4 95 0.0 0 0.0 1.3 4.6 276
30/06/2020 23:50 17.2 96 0.0 0 0.0 1.4 5.1 282
Anterior Página 1 de 1 Siguiente

NOTA: Tipo de datos según el color:
   - Valores diarios o 10 minutos correctos
   - Valores diarios calculados a partir de un número de datos 10 minutos menor que 144 y mayor que 120, o de un número de datos semihorarios menor que 48 y mayor que 40 (caso de las estaciones de INTIA y del Ministerio)
   - Valores diez minutos estimados


Contacto        Enlaces        Aviso legal